createdAt,value
2023-04-01T00:01:27.220Z,14.85
2023-04-01T00:03:53.677Z,14.83
2023-04-01T00:06:20.030Z,14.80
2023-04-01T00:08:46.345Z,14.80
2023-04-01T00:11:12.677Z,14.79
2023-04-01T00:13:39.085Z,14.75
2023-04-01T00:16:17.649Z,14.74
2023-04-01T00:18:31.818Z,14.72
2023-04-01T00:20:58.176Z,14.72
2023-04-01T00:23:24.531Z,14.70
2023-04-01T00:25:50.996Z,14.69
2023-04-01T00:28:17.278Z,14.67
2023-04-01T00:30:43.621Z,14.66
2023-04-01T00:33:10.145Z,14.65
2023-04-01T00:35:36.507Z,14.63
2023-04-01T00:38:02.833Z,14.61
2023-04-01T00:40:29.232Z,14.60
2023-04-01T00:42:55.573Z,14.58
2023-04-01T00:45:21.905Z,14.56
2023-04-01T00:47:48.340Z,14.54
2023-04-01T00:50:14.717Z,14.52
2023-04-01T00:52:41.003Z,14.51
2023-04-01T00:55:07.398Z,14.50
2023-04-01T00:57:33.725Z,14.48
2023-04-01T01:00:00.074Z,14.47
2023-04-01T01:02:26.463Z,14.46
2023-04-01T01:04:52.732Z,14.44
2023-04-01T01:07:19.058Z,14.42
2023-04-01T01:09:45.480Z,14.41
2023-04-01T01:12:11.799Z,14.39
2023-04-01T01:14:38.164Z,14.36
2023-04-01T01:17:04.523Z,14.33
2023-04-01T01:19:30.916Z,14.31
2023-04-01T01:21:57.207Z,14.28
2023-04-01T01:24:23.627Z,14.26
2023-04-01T01:26:49.996Z,14.23
2023-04-01T01:29:16.326Z,14.21
2023-04-01T01:31:42.756Z,14.20
2023-04-01T01:34:08.992Z,14.19
2023-04-01T01:36:35.357Z,14.18
2023-04-01T01:39:01.704Z,14.16
2023-04-01T01:41:28.075Z,14.14
2023-04-01T01:43:54.413Z,14.13
2023-04-01T01:46:20.826Z,14.11
2023-04-01T01:48:47.201Z,14.09
2023-04-01T01:51:13.547Z,14.08
2023-04-01T01:53:39.891Z,14.07
2023-04-01T01:56:06.233Z,14.04
2023-04-01T01:58:32.563Z,14.03
2023-04-01T02:00:58.925Z,14.03
2023-04-01T02:03:25.353Z,14.03
2023-04-01T02:05:51.924Z,14.03
2023-04-01T02:08:18.271Z,14.02
2023-04-01T02:10:44.636Z,14.02
2023-04-01T02:13:11.014Z,14.03
2023-04-01T02:15:37.350Z,14.04
2023-04-01T02:18:03.754Z,14.04
2023-04-01T02:20:30.055Z,14.04
2023-04-01T02:22:56.403Z,14.04
2023-04-01T02:25:22.752Z,14.05
2023-04-01T02:27:49.139Z,14.05
2023-04-01T02:30:15.519Z,14.06
2023-04-01T02:32:41.911Z,14.06
2023-04-01T02:35:08.244Z,14.06
2023-04-01T02:37:36.310Z,14.06
2023-04-01T02:40:00.943Z,14.06
2023-04-01T02:42:27.347Z,14.08
2023-04-01T02:44:53.730Z,14.09
2023-04-01T02:47:20.094Z,14.09
2023-04-01T02:49:46.432Z,14.09
2023-04-01T02:52:12.802Z,14.09
2023-04-01T02:54:39.159Z,14.09
2023-04-01T02:57:05.523Z,14.08
2023-04-01T02:59:31.882Z,14.08
2023-04-01T03:01:58.268Z,14.08
2023-04-01T03:04:24.591Z,14.07
2023-04-01T03:06:50.913Z,14.07
2023-04-01T03:09:17.244Z,14.05
2023-04-01T03:11:43.564Z,14.05
2023-04-01T03:14:10.012Z,14.03
2023-04-01T03:16:36.431Z,14.02
2023-04-01T03:19:02.699Z,14.02
2023-04-01T03:21:29.062Z,14.01
2023-04-01T03:23:55.442Z,13.99
2023-04-01T03:26:21.768Z,13.98
2023-04-01T03:28:48.165Z,13.96
2023-04-01T03:31:14.542Z,13.95
2023-04-01T03:33:40.975Z,13.95
2023-04-01T03:36:07.424Z,13.94
2023-04-01T03:38:33.675Z,13.95
2023-04-01T03:41:00.007Z,13.95
2023-04-01T03:43:26.346Z,13.94
2023-04-01T03:45:52.747Z,13.94
2023-04-01T03:48:19.098Z,13.93
2023-04-01T03:50:45.496Z,13.93
2023-04-01T03:53:11.839Z,13.93
2023-04-01T03:55:38.187Z,13.92
2023-04-01T03:58:04.540Z,13.92
2023-04-01T04:00:30.879Z,13.91
2023-04-01T04:02:57.332Z,13.92
2023-04-01T04:05:23.601Z,13.92
2023-04-01T04:07:50.003Z,13.91
2023-04-01T04:10:16.344Z,13.91
2023-04-01T04:12:42.745Z,13.90
2023-04-01T04:15:09.083Z,13.91
2023-04-01T04:17:35.461Z,13.90
2023-04-01T04:20:01.750Z,13.89
2023-04-01T04:22:28.391Z,13.89
2023-04-01T04:24:54.708Z,13.87
2023-04-01T04:27:21.053Z,13.86
2023-04-01T04:29:47.673Z,13.85
2023-04-01T04:32:14.005Z,13.83
2023-04-01T04:34:40.330Z,13.83
2023-04-01T04:37:06.711Z,13.82
2023-04-01T04:39:33.073Z,13.79
2023-04-01T04:41:59.412Z,13.79
2023-04-01T04:44:25.736Z,13.80
2023-04-01T04:46:52.329Z,13.79
2023-04-01T04:49:18.598Z,13.78
2023-04-01T04:51:44.946Z,13.76
2023-04-01T04:54:11.270Z,13.77
2023-04-01T04:56:37.665Z,13.78
2023-04-01T04:59:04.097Z,13.77
2023-04-01T05:01:30.545Z,13.79
2023-04-01T05:03:56.801Z,13.79
2023-04-01T05:06:23.628Z,13.80
2023-04-01T05:08:49.537Z,13.81
2023-04-01T05:11:16.018Z,13.82
2023-04-01T05:13:42.366Z,13.84
2023-04-01T05:16:08.834Z,13.85
2023-04-01T05:18:35.119Z,13.84
2023-04-01T05:21:01.510Z,13.85
2023-04-01T05:23:28.085Z,13.85
2023-04-01T05:25:54.441Z,13.86
2023-04-01T05:28:20.795Z,13.91
2023-04-01T05:30:47.262Z,13.93
2023-04-01T05:33:13.560Z,13.99
2023-04-01T05:35:40.052Z,14.09
2023-04-01T05:38:08.063Z,14.26
2023-04-01T05:40:32.742Z,14.36
2023-04-01T05:42:59.083Z,14.48
2023-04-01T05:45:25.680Z,14.69
2023-04-01T05:47:52.057Z,14.85
2023-04-01T05:50:18.388Z,15.13
2023-04-01T05:52:44.751Z,15.46
2023-04-01T05:55:11.140Z,15.77
2023-04-01T05:57:38.144Z,16.09
2023-04-01T06:00:04.524Z,16.43
2023-04-01T06:02:31.178Z,16.79
2023-04-01T06:04:57.564Z,17.09
2023-04-01T06:07:23.857Z,17.35
2023-04-01T06:09:50.336Z,17.44
2023-04-01T06:12:16.743Z,17.47
2023-04-01T06:14:43.148Z,17.59
2023-04-01T06:17:09.488Z,17.75
2023-04-01T06:19:35.912Z,17.85
2023-04-01T06:22:02.250Z,17.89
2023-04-01T06:24:28.657Z,17.90
2023-04-01T06:26:55.310Z,17.91
2023-04-01T06:29:21.691Z,17.91
2023-04-01T06:31:48.166Z,17.92
2023-04-01T06:34:14.566Z,17.98
2023-04-01T06:36:40.997Z,17.99
2023-04-01T06:39:09.582Z,17.76
2023-04-01T06:41:33.661Z,17.53
2023-04-01T06:44:00.038Z,17.35
2023-04-01T06:46:26.482Z,17.18
2023-04-01T06:48:52.789Z,17.00
2023-04-01T06:51:19.164Z,16.84
2023-04-01T06:53:45.541Z,16.72
2023-04-01T06:56:11.907Z,16.64
2023-04-01T06:58:38.296Z,16.59
2023-04-01T07:01:04.612Z,16.55
2023-04-01T07:03:31.016Z,16.51
2023-04-01T07:05:57.332Z,16.49
2023-04-01T07:08:23.761Z,16.45
2023-04-01T07:10:50.141Z,16.55
2023-04-01T07:13:16.734Z,16.89
2023-04-01T07:15:42.981Z,16.89
2023-04-01T07:18:09.350Z,16.80
2023-04-01T07:20:35.670Z,16.74
2023-04-01T07:23:02.072Z,16.70
2023-04-01T07:25:28.374Z,16.69
2023-04-01T07:27:54.757Z,16.63
2023-04-01T07:30:21.076Z,16.60
2023-04-01T07:32:47.460Z,16.60
2023-04-01T07:35:13.957Z,16.61
2023-04-01T07:37:40.313Z,16.61
2023-04-01T07:40:06.694Z,16.61
2023-04-01T07:42:33.621Z,16.62
2023-04-01T07:45:00.056Z,16.63
2023-04-01T07:47:26.383Z,16.64
2023-04-01T07:49:52.742Z,16.64
2023-04-01T07:52:19.222Z,16.64
2023-04-01T07:54:45.542Z,16.65
2023-04-01T07:57:12.007Z,16.67
2023-04-01T07:59:38.348Z,16.65
2023-04-01T08:02:04.701Z,16.64
2023-04-01T08:04:31.077Z,16.62
2023-04-01T08:06:57.501Z,16.61
2023-04-01T08:09:23.838Z,16.60
2023-04-01T08:11:50.182Z,16.61
2023-04-01T08:14:16.578Z,16.63
2023-04-01T08:16:43.046Z,16.65
2023-04-01T08:19:09.283Z,16.68
2023-04-01T08:21:35.682Z,16.70
2023-04-01T08:24:02.070Z,16.73
2023-04-01T08:26:28.426Z,16.76
2023-04-01T08:28:54.742Z,16.82
2023-04-01T08:31:21.124Z,16.84
2023-04-01T08:33:47.410Z,16.86
2023-04-01T08:36:14.022Z,16.90
2023-04-01T08:38:40.269Z,16.97
2023-04-01T08:41:12.652Z,17.04
2023-04-01T08:43:39.313Z,17.14
2023-04-01T08:46:06.012Z,17.23
2023-04-01T08:48:32.320Z,17.35
2023-04-01T08:50:58.775Z,17.59
2023-04-01T08:53:25.078Z,17.97
2023-04-01T08:55:51.460Z,18.43
2023-04-01T08:58:18.095Z,18.71
2023-04-01T09:00:48.881Z,18.87
2023-04-01T09:03:15.438Z,19.00
2023-04-01T09:05:42.579Z,19.11
2023-04-01T09:08:08.974Z,19.16
2023-04-01T09:10:35.367Z,19.14
2023-04-01T09:13:01.803Z,19.11
2023-04-01T09:15:28.308Z,19.10
2023-04-01T09:17:54.628Z,19.02
2023-04-01T09:20:21.032Z,18.97
2023-04-01T09:22:49.740Z,18.91
2023-04-01T09:25:16.932Z,18.93
2023-04-01T09:27:45.992Z,18.91
2023-04-01T09:30:12.321Z,18.93
2023-04-01T09:32:38.765Z,18.92
2023-04-01T09:35:05.127Z,18.93
2023-04-01T09:37:31.467Z,19.08
2023-04-01T09:39:57.858Z,19.19
2023-04-01T09:42:24.227Z,19.19
2023-04-01T09:44:50.559Z,19.15
2023-04-01T09:47:16.930Z,19.14
2023-04-01T09:49:43.308Z,19.11
2023-04-01T09:52:09.676Z,19.17
2023-04-01T09:54:36.108Z,19.17
2023-04-01T09:57:02.399Z,19.14
2023-04-01T09:59:28.720Z,19.08
2023-04-01T10:01:55.107Z,19.00
2023-04-01T10:04:21.531Z,18.99
2023-04-01T10:06:47.818Z,18.95
2023-04-01T10:09:14.201Z,18.93
2023-04-01T10:11:40.604Z,18.93
2023-04-01T10:14:06.969Z,18.90
2023-04-01T10:16:33.428Z,18.85
2023-04-01T10:18:59.682Z,18.80
2023-04-01T10:21:26.094Z,18.76
2023-04-01T10:23:52.443Z,18.74
2023-04-01T10:26:18.776Z,18.74
2023-04-01T10:28:45.132Z,18.71
2023-04-01T10:31:11.485Z,18.80
2023-04-01T10:33:37.883Z,18.81
2023-04-01T10:36:04.255Z,18.70
2023-04-01T10:38:30.591Z,18.56
2023-04-01T10:40:57.009Z,18.46
2023-04-01T10:43:23.373Z,18.41
2023-04-01T10:45:49.728Z,18.39
2023-04-01T10:48:16.342Z,18.36
2023-04-01T10:50:42.728Z,18.33
2023-04-01T10:53:09.106Z,18.30
2023-04-01T10:55:35.540Z,18.23
2023-04-01T10:58:01.832Z,18.16
2023-04-01T11:00:28.174Z,18.12
2023-04-01T11:02:54.553Z,18.10
2023-04-01T11:05:21.178Z,18.10
2023-04-01T11:07:55.840Z,18.07
2023-04-01T11:10:13.610Z,18.04
2023-04-01T11:12:39.976Z,18.04
2023-04-01T11:15:06.378Z,18.02
2023-04-01T11:17:32.795Z,18.01
2023-04-01T11:19:59.110Z,18.00
2023-04-01T11:22:25.562Z,17.97
2023-04-01T11:24:51.963Z,17.93
2023-04-01T11:27:18.383Z,17.90
2023-04-01T11:29:56.599Z,17.87
2023-04-01T11:32:11.092Z,17.82
2023-04-01T11:34:37.445Z,17.79
2023-04-01T11:37:03.824Z,17.75
2023-04-01T11:39:30.145Z,17.73
2023-04-01T11:41:56.527Z,17.70
2023-04-01T11:44:22.848Z,17.64
2023-04-01T11:46:49.219Z,17.58
2023-04-01T11:49:15.553Z,17.54
2023-04-01T11:51:41.956Z,17.46
2023-04-01T11:54:08.337Z,17.34
2023-04-01T11:56:34.673Z,17.22
2023-04-01T11:59:01.003Z,17.10
2023-04-01T12:01:27.422Z,16.99
2023-04-01T12:03:53.976Z,16.87
2023-04-01T12:06:20.092Z,16.76
2023-04-01T12:08:46.466Z,16.70
2023-04-01T12:11:12.902Z,16.64
2023-04-01T12:13:39.350Z,16.60
2023-04-01T12:16:05.726Z,16.56
2023-04-01T12:18:32.294Z,16.52
2023-04-01T12:20:58.678Z,16.49
2023-04-01T12:23:24.982Z,16.53
2023-04-01T12:25:51.401Z,16.57
2023-04-01T12:28:17.694Z,16.63
2023-04-01T12:30:44.056Z,16.66
2023-04-01T12:33:10.425Z,16.71
2023-04-01T12:35:36.980Z,16.71
2023-04-01T12:38:03.298Z,16.68
2023-04-01T12:40:29.647Z,16.64
2023-04-01T12:42:55.963Z,16.58
2023-04-01T12:45:22.339Z,16.52
2023-04-01T12:47:48.700Z,16.44
2023-04-01T12:50:15.072Z,16.39
2023-04-01T12:52:41.502Z,16.37
2023-04-01T12:55:07.847Z,16.35
2023-04-01T12:57:34.328Z,16.30
2023-04-01T13:00:00.968Z,16.26
2023-04-01T13:02:27.281Z,16.22
2023-04-01T13:04:53.613Z,16.14
2023-04-01T13:07:20.042Z,16.11
2023-04-01T13:09:48.677Z,16.06
2023-04-01T13:12:12.765Z,16.03
2023-04-01T13:14:39.118Z,16.01
2023-04-01T13:17:05.454Z,15.97
2023-04-01T13:19:31.771Z,15.95
2023-04-01T13:21:58.154Z,15.99
2023-04-01T13:24:24.525Z,16.00
2023-04-01T13:26:50.871Z,16.01
2023-04-01T13:29:17.190Z,15.99
2023-04-01T13:31:43.649Z,15.97
2023-04-01T13:34:09.937Z,15.97
2023-04-01T13:36:36.277Z,16.03
2023-04-01T13:39:02.651Z,16.09
2023-04-01T13:41:28.995Z,16.15
2023-04-01T13:43:55.481Z,16.17
2023-04-01T13:46:21.863Z,16.20
2023-04-01T13:48:48.187Z,16.20
2023-04-01T13:51:14.592Z,16.22
2023-04-01T13:53:40.942Z,16.22
2023-04-01T13:56:07.391Z,16.18
2023-04-01T13:58:33.702Z,16.16
2023-04-01T14:01:00.165Z,16.20
2023-04-01T14:03:26.506Z,16.22
2023-04-01T14:05:52.843Z,16.25
2023-04-01T14:08:19.186Z,16.24
2023-04-01T14:10:45.584Z,16.23
2023-04-01T14:13:11.933Z,16.21
2023-04-01T14:15:38.276Z,16.20
2023-04-01T14:18:04.664Z,16.22
2023-04-01T14:20:31.013Z,16.20
2023-04-01T14:22:57.330Z,16.20
2023-04-01T14:25:23.747Z,16.21
2023-04-01T14:27:50.120Z,16.22
2023-04-01T14:30:16.466Z,16.41
2023-04-01T14:32:42.834Z,16.55
2023-04-01T14:35:09.132Z,16.59
2023-04-01T14:37:35.510Z,16.61
2023-04-01T14:40:01.947Z,16.59
2023-04-01T14:42:28.217Z,16.75
2023-04-01T14:44:55.627Z,16.77
2023-04-01T14:47:21.954Z,16.73
2023-04-01T14:49:48.317Z,16.74
2023-04-01T14:52:14.727Z,16.73
2023-04-01T14:54:41.039Z,16.73
2023-04-01T14:57:07.450Z,16.68
2023-04-01T14:59:33.865Z,16.64
2023-04-01T15:02:00.208Z,16.56
2023-04-01T15:04:26.648Z,16.47
2023-04-01T15:06:53.948Z,16.43
2023-04-01T15:09:20.357Z,16.38
2023-04-01T15:11:46.709Z,16.34
2023-04-01T15:14:13.191Z,16.29
2023-04-01T15:16:39.602Z,16.30
2023-04-01T15:19:06.140Z,16.28
2023-04-01T15:21:32.494Z,16.24
2023-04-01T15:23:58.916Z,16.16
2023-04-01T15:26:25.241Z,16.10
2023-04-01T15:28:51.740Z,16.05
2023-04-01T15:31:18.099Z,16.04
2023-04-01T15:33:44.441Z,16.03
2023-04-01T15:36:10.977Z,15.98
2023-04-01T15:38:37.291Z,15.92
2023-04-01T15:41:03.618Z,15.90
2023-04-01T15:43:30.046Z,15.87
2023-04-01T15:45:56.404Z,15.86
2023-04-01T15:48:22.777Z,15.85
2023-04-01T15:50:49.132Z,15.84
2023-04-01T15:53:15.442Z,15.83
2023-04-01T15:55:41.827Z,15.87
2023-04-01T15:58:08.194Z,15.93
2023-04-01T16:00:34.528Z,15.94
2023-04-01T16:03:00.985Z,15.93
2023-04-01T16:05:29.752Z,15.88
2023-04-01T16:07:56.117Z,15.81
2023-04-01T16:10:22.462Z,15.73
2023-04-01T16:12:48.802Z,15.65
2023-04-01T16:15:15.326Z,15.56
2023-04-01T16:17:41.541Z,15.47
2023-04-01T16:20:07.891Z,15.37
2023-04-01T16:22:34.286Z,15.26
2023-04-01T16:25:00.646Z,15.16
2023-04-01T16:27:26.974Z,15.08
2023-04-01T16:29:53.297Z,15.12
2023-04-01T16:32:19.645Z,15.10
2023-04-01T16:34:46.009Z,15.02
2023-04-01T16:37:12.410Z,14.99
2023-04-01T16:39:38.724Z,14.92
2023-04-01T16:42:05.286Z,14.83
2023-04-01T16:44:31.570Z,14.75
2023-04-01T16:46:57.969Z,14.71
2023-04-01T16:49:24.311Z,14.71
2023-04-01T16:51:50.735Z,14.67
2023-04-01T16:54:17.105Z,14.61
2023-04-01T16:56:43.441Z,14.53
2023-04-01T16:59:09.904Z,14.48
2023-04-01T17:01:36.327Z,14.45
2023-04-01T17:04:02.656Z,14.39
2023-04-01T17:06:29.438Z,14.33
2023-04-01T17:08:55.399Z,14.27
2023-04-01T17:11:21.764Z,14.22
2023-04-01T17:13:48.260Z,14.19
2023-04-01T17:16:14.624Z,14.14
2023-04-01T17:18:40.975Z,14.08
2023-04-01T17:21:07.317Z,14.03
2023-04-01T17:23:33.710Z,14.00
2023-04-01T17:26:00.151Z,13.94
2023-04-01T17:28:26.436Z,13.91
2023-04-01T17:30:52.827Z,13.88
2023-04-01T17:33:19.254Z,13.82
2023-04-01T17:35:45.671Z,13.78
2023-04-01T17:38:14.452Z,13.73
2023-04-01T17:40:40.810Z,13.70
2023-04-01T17:43:07.203Z,13.69
2023-04-01T17:45:33.592Z,13.67
2023-04-01T17:47:59.970Z,13.66
2023-04-01T17:50:26.290Z,13.67
2023-04-01T17:52:52.649Z,13.61
2023-04-01T17:55:19.023Z,13.56
2023-04-01T17:57:45.440Z,13.56
2023-04-01T18:00:11.786Z,13.52
2023-04-01T18:02:38.236Z,13.48
2023-04-01T18:05:04.506Z,13.44
2023-04-01T18:07:30.968Z,13.42
2023-04-01T18:09:57.305Z,13.43
2023-04-01T18:12:23.659Z,13.38
2023-04-01T18:14:50.002Z,13.36
2023-04-01T18:17:16.434Z,13.33
2023-04-01T18:19:42.785Z,13.32
2023-04-01T18:22:09.147Z,13.29
2023-04-01T18:24:35.484Z,13.29
2023-04-01T18:27:01.849Z,13.25
2023-04-01T18:29:28.205Z,13.23
2023-04-01T18:31:54.613Z,13.20
2023-04-01T18:34:20.957Z,13.18
2023-04-01T18:36:47.313Z,13.17
2023-04-01T18:39:13.988Z,13.14
2023-04-01T18:41:40.296Z,13.10
2023-04-01T18:44:06.651Z,13.07
2023-04-01T18:46:33.023Z,13.04
2023-04-01T18:48:59.422Z,13.04
2023-04-01T18:51:25.806Z,13.03
2023-04-01T18:53:52.156Z,13.03
2023-04-01T18:56:18.517Z,13.02
2023-04-01T18:58:44.894Z,13.03
2023-04-01T19:01:11.240Z,13.03
2023-04-01T19:03:37.800Z,13.00
2023-04-01T19:06:03.934Z,12.98
2023-04-01T19:08:30.458Z,12.97
2023-04-01T19:10:56.749Z,12.97
2023-04-01T19:13:27.611Z,12.97
2023-04-01T19:15:55.003Z,12.96
2023-04-01T19:18:21.298Z,12.96
2023-04-01T19:20:48.834Z,12.96
2023-04-01T19:23:16.280Z,12.95
2023-04-01T19:25:43.493Z,12.95
2023-04-01T19:28:09.878Z,12.94
2023-04-01T19:30:36.475Z,12.92
2023-04-01T19:33:02.768Z,12.91
2023-04-01T19:35:29.039Z,12.89
2023-04-01T19:37:55.383Z,12.87
2023-04-01T19:40:21.718Z,12.85
2023-04-01T19:42:48.142Z,12.82
2023-04-01T19:45:14.525Z,12.82
2023-04-01T19:47:40.882Z,12.81
2023-04-01T19:50:07.226Z,12.81
2023-04-01T19:52:33.574Z,12.78
2023-04-01T19:54:59.893Z,12.77
2023-04-01T19:57:28.545Z,12.76
2023-04-01T19:59:54.785Z,12.75
2023-04-01T20:02:21.166Z,12.74
2023-04-01T20:04:47.516Z,12.72
2023-04-01T20:07:13.907Z,12.71
2023-04-01T20:09:40.314Z,12.71
2023-04-01T20:12:06.725Z,12.70
2023-04-01T20:14:33.073Z,12.66
2023-04-01T20:16:59.413Z,12.62
2023-04-01T20:19:25.876Z,12.58
2023-04-01T20:21:52.214Z,12.56
2023-04-01T20:24:18.627Z,12.55
2023-04-01T20:26:44.985Z,12.55
2023-04-01T20:29:11.293Z,12.55
2023-04-01T20:31:37.693Z,12.53
2023-04-01T20:34:03.993Z,12.52
2023-04-01T20:36:31.288Z,12.49
2023-04-01T20:38:57.630Z,12.48
2023-04-01T20:41:23.969Z,12.46
2023-04-01T20:43:50.366Z,12.44
2023-04-01T20:46:16.779Z,12.42
2023-04-01T20:48:43.078Z,12.44
2023-04-01T20:51:09.712Z,12.42
2023-04-01T20:53:36.079Z,12.40
2023-04-01T20:56:02.433Z,12.38
2023-04-01T20:58:28.763Z,12.34
2023-04-01T21:00:55.119Z,12.33
2023-04-01T21:03:21.466Z,12.32
2023-04-01T21:05:47.844Z,12.31
2023-04-01T21:08:15.255Z,12.30
2023-04-01T21:10:44.290Z,12.27
2023-04-01T21:13:10.708Z,12.26
2023-04-01T21:15:37.248Z,12.25
2023-04-01T21:18:03.487Z,12.24
2023-04-01T21:20:29.778Z,12.24
2023-04-01T21:22:56.089Z,12.23
2023-04-01T21:25:22.512Z,12.22
2023-04-01T21:27:48.881Z,12.20
2023-04-01T21:30:15.333Z,12.17
2023-04-01T21:32:41.708Z,12.18
2023-04-01T21:35:08.101Z,12.18
2023-04-01T21:37:34.433Z,12.18
2023-04-01T21:40:00.766Z,12.19
2023-04-01T21:42:27.160Z,12.17
2023-04-01T21:44:53.514Z,12.19
2023-04-01T21:47:19.908Z,12.20
2023-04-01T21:49:46.197Z,12.20
2023-04-01T21:52:12.554Z,12.21
2023-04-01T21:54:38.929Z,12.20
2023-04-01T21:57:05.393Z,12.20
2023-04-01T21:59:31.592Z,12.21
2023-04-01T22:01:57.907Z,12.21
2023-04-01T22:04:24.629Z,12.19
2023-04-01T22:06:50.631Z,12.17
2023-04-01T22:09:17.002Z,12.16
2023-04-01T22:11:43.321Z,12.13
2023-04-01T22:14:09.701Z,12.09
2023-04-01T22:16:36.096Z,12.07
2023-04-01T22:19:02.394Z,12.05
2023-04-01T22:21:28.715Z,12.04
2023-04-01T22:23:55.138Z,11.98
2023-04-01T22:26:21.439Z,11.96
2023-04-01T22:28:47.816Z,11.95
2023-04-01T22:31:14.182Z,11.91
2023-04-01T22:33:40.522Z,11.88
2023-04-01T22:36:06.848Z,11.84
2023-04-01T22:38:33.230Z,11.80
2023-04-01T22:40:59.585Z,11.77
2023-04-01T22:43:25.969Z,11.74
2023-04-01T22:45:52.295Z,11.72
2023-04-01T22:48:18.659Z,11.69
2023-04-01T22:50:45.003Z,11.67
2023-04-01T22:53:11.415Z,11.64
2023-04-01T22:55:37.727Z,11.63
2023-04-01T22:58:04.074Z,11.60
2023-04-01T23:00:30.390Z,11.58
2023-04-01T23:02:56.847Z,11.53
2023-04-01T23:05:23.111Z,11.51
2023-04-01T23:07:49.495Z,11.50
2023-04-01T23:10:15.860Z,11.48
2023-04-01T23:12:42.286Z,11.45
2023-04-01T23:15:08.554Z,11.41
2023-04-01T23:17:35.003Z,11.40
2023-04-01T23:20:01.239Z,11.38
2023-04-01T23:22:27.598Z,11.38
2023-04-01T23:24:53.949Z,11.35
2023-04-01T23:27:20.336Z,11.36
2023-04-01T23:29:46.674Z,11.34
2023-04-01T23:32:13.051Z,11.33
2023-04-01T23:34:39.406Z,11.32
2023-04-01T23:37:05.819Z,11.31
2023-04-01T23:39:32.160Z,11.31
2023-04-01T23:41:58.516Z,11.30
2023-04-01T23:44:24.972Z,11.28
2023-04-01T23:46:51.338Z,11.27
2023-04-01T23:49:17.714Z,11.25
2023-04-01T23:51:44.072Z,11.24
2023-04-01T23:54:10.444Z,11.21
2023-04-01T23:56:36.758Z,11.19
2023-04-01T23:59:03.118Z,11.17
